LGIR/HER METAR and TAF weather

Enter ICAO airport designator
Station Type Date Time Source
LGIR METAR 2021/03/01 10:20 UTC NOAA

LGIR 011020Z 33017KT 9999 FEW025 SCT030 14/05 Q1025 NOSIG


Station Type Date Time Source
LGIR Decoded METAR 2021/03/01 10:20 UTC NOAA

Heraklion Airport , Greece (LGIR) 35-20N 025-11E 39M
Mar 01, 2021 - 05:20 AM EST / 2021.03.01 1020 UTC
Wind: from the NNW (330 degrees) at 20 MPH (17 KT):0
Visibility: greater than 7 mile(s):0
Sky conditions: partly cloudy
Temperature: 57 F (14 C)
Dew Point: 41 F (5 C)
Relative Humidity: 54%
Pressure (altimeter): 30.27 in. Hg (1025 hPa)
ob: LGIR 011020Z 33017KT 9999 FEW025 SCT030 14/05 Q1025 NOSIG
cycle: 10

Station Type Date Time Source
LGIR TAF 2021/03/01 06:12 UTC NOAA

TAF LGIR 010500Z 0106/0206 33021KT 9999 FEW020
TEMPO 0115/0200 33011KT
BECMG 0200/0202 BKN020 SCT080

Example: see airport list